Airfield :
LOGIN :

Register | Disclaimer

   EN    FR    IT 

 










Legend :    VFR   Marginal VFR   IFR   Intensive IFR   Very Intensive IFR
Visi :
Ceiling :
>= 8 km
>= 3000ft
5 to 8 km
1000 to 3000 ft
1500m to 5 km
500 to 1000 ft
800 to 1500m
200 to 500 ft
< 800m
< 200 ft
Symbols :   Thunderstorms  Fog  Heavy snow  Heavy precipitations  Wind > 20 kt
SIGMETs :     Misc.  Thunderstorms  Icing  Turbulence  Mountain Waves  Volcanic Ashes






- Airport Elevation : 1910 ft
- IATA code : RDZ


LFCR - Rodez

CURRENT METAR :
  • 290930Z AUTO 36011KT 310V030 CAVOK 18/04 Q1011 NOSIG

EXPIRED METARs :
  • 290900Z AUTO 36010KT 320V040 CAVOK 17/02 Q1011 NOSIG
  • 290830Z AUTO 35007KT 330V030 CAVOK 16/03 Q1011 NOSIG
  • 290800Z AUTO 01006KT 320V060 CAVOK 16/05 Q1011 NOSIG
  • 290730Z AUTO 36006KT 320V060 CAVOK 14/05 Q1011 NOSIG
  • 290700Z AUTO 03004KT 010V070 CAVOK 14/04 Q1011 NOSIG

TAF TAF LFCR
Valid from the 29 at 06:00 until the 30 at 06:00 UTC


290500Z 2906/3006 VRB02KT CAVOK
BECMG 2908/2910 32008KT
BECMG 2920/2922 VRB02KT



MET'MAP, your aeronautical weather chart ! - Copyright ORBIFLY December 2007 - Disclaimer

ORBIFLY MET'MAP TEAM :

Programming & Development : Alexandra Zaïnal
Original concept : Baudouin d'Aumeries
Technical & hardware support : Manuel Goepfert
Assistance : Marc-Olivier Méhu

Contact : metmap@orbifly.com




SOURCES & CREDITS :

   NOAA